Time;durP1;ratioP1;P1;durP2;ratioP2;P2;SDS_P1;SDS_P2;PMS_P1;PMS_P2;Temp;Humidity;BMP_temperature;BMP_pressure;BME280_temperature;BME280_humidity;BME280_pressure;Samples;Min_cycle;Max_cycle;Signal;HPM_P1;HPM_P2
2021/06/10 00:00:39;;;;;;;4.78;4.13;;;;;;;;;;5031412;28;20104;-74
2021/06/10 00:03:04;;;;;;;5.93;4.32;;;;;;;;;;5014911;28;20124;-74
2021/06/10 00:05:30;;;;;;;4.97;4.30;;;;;;;;;;4998457;28;20034;-74
2021/06/10 00:07:56;;;;;;;5.03;4.20;;;;;;;;;;5015095;28;20522;-74
2021/06/10 00:10:22;;;;;;;9.20;5.07;;;;;;;;;;4995067;28;20037;-74
2021/06/10 00:12:48;;;;;;;4.97;4.47;;;;;;;;;;5010083;28;20030;-74
2021/06/10 00:15:16;;;;;;;5.25;4.05;;;;;;;;;;4996745;28;20373;-74
2021/06/10 00:17:41;;;;;;;5.80;4.60;;;;;;;;;;5012193;28;20116;-74
2021/06/10 00:20:07;;;;;;;5.72;4.68;;;;;;;;;;4995154;28;20486;-74
2021/06/10 00:22:33;;;;;;;7.72;5.13;;;;;;;;;;5011337;28;20096;-74
2021/06/10 00:24:58;;;;;;;4.97;4.53;;;;;;;;;;5002330;28;20030;-74
2021/06/10 00:27:24;;;;;;;8.02;5.03;;;;;;;;;;5032088;28;20034;-74
2021/06/10 00:29:50;;;;;;;5.65;5.15;;;;;;;;;;5014278;28;20103;-74
2021/06/10 00:32:16;;;;;;;6.60;5.10;;;;;;;;;;5014812;28;20033;-74
2021/06/10 00:34:42;;;;;;;6.75;5.43;;;;;;;;;;5014101;28;20567;-74
2021/06/10 00:37:08;;;;;;;8.55;5.03;;;;;;;;;;5011105;28;20045;-74
2021/06/10 00:39:34;;;;;;;5.95;5.13;;;;;;;;;;4995150;28;20034;-74
2021/06/10 00:41:59;;;;;;;5.60;4.90;;;;;;;;;;4995227;28;20454;-74
2021/06/10 00:44:24;;;;;;;6.80;5.43;;;;;;;;;;4994623;28;20129;-74
2021/06/10 00:46:50;;;;;;;6.82;4.85;;;;;;;;;;5010683;28;20068;-74
2021/06/10 00:49:16;;;;;;;9.65;5.15;;;;;;;;;;5003856;28;20080;-74
2021/06/10 00:51:41;;;;;;;6.88;4.88;;;;;;;;;;4997677;28;20041;-74
2021/06/10 00:54:06;;;;;;;6.47;4.93;;;;;;;;;;5030636;28;20037;-74
2021/06/10 00:56:33;;;;;;;6.65;5.45;;;;;;;;;;4993834;28;20136;-74
2021/06/10 00:58:59;;;;;;;6.97;5.78;;;;;;;;;;5011284;28;20057;-74
2021/06/10 01:01:25;;;;;;;6.40;5.30;;;;;;;;;;5010586;28;20538;-74
2021/06/10 01:03:50;;;;;;;6.03;5.43;;;;;;;;;;4994186;28;20041;-74
2021/06/10 01:06:40;;;;;;;6.95;5.45;;;;;;;;;;5022874;28;20517;-74
2021/06/10 01:09:19;;;;;;;8.15;5.38;;;;;;;;;;5047136;28;20048;-74
2021/06/10 01:11:51;;;;;;;6.30;5.70;;;;;;;;;;4998379;28;20037;-74
2021/06/10 01:14:26;;;;;;;6.53;5.85;;;;;;;;;;4998552;28;20065;-74
2021/06/10 01:16:51;;;;;;;7.13;6.35;;;;;;;;;;5014456;28;20037;-74
2021/06/10 01:19:42;;;;;;;6.88;5.60;;;;;;;;;;5013816;28;20395;-74
2021/06/10 01:22:27;;;;;;;7.78;5.88;;;;;;;;;;5030288;28;20033;-74
2021/06/10 01:25:37;;;;;;;7.93;6.45;;;;;;;;;;5024186;28;20061;-74
2021/06/10 01:28:11;;;;;;;7.28;6.07;;;;;;;;;;4973964;28;20112;-74
2021/06/10 01:30:49;;;;;;;6.82;5.70;;;;;;;;;;4958304;28;20035;-74
2021/06/10 01:33:24;;;;;;;6.97;5.68;;;;;;;;;;4992846;28;20103;-74
2021/06/10 01:35:57;;;;;;;6.88;6.03;;;;;;;;;;5013571;28;20029;-74
2021/06/10 01:38:23;;;;;;;7.35;6.25;;;;;;;;;;5014183;28;20041;-74
2021/06/10 01:40:49;;;;;;;8.35;6.43;;;;;;;;;;5013886;28;20083;-74
2021/06/10 01:43:16;;;;;;;6.88;6.25;;;;;;;;;;5012114;28;20029;-74
2021/06/10 01:45:41;;;;;;;7.03;6.32;;;;;;;;;;5013227;28;20038;-74
2021/06/10 01:48:07;;;;;;;8.35;6.38;;;;;;;;;;5013687;28;20449;-74
2021/06/10 01:50:33;;;;;;;8.25;6.18;;;;;;;;;;5013589;28;20044;-75
2021/06/10 01:52:59;;;;;;;7.18;6.47;;;;;;;;;;5013530;28;20029;-75
2021/06/10 01:55:27;;;;;;;11.52;6.75;;;;;;;;;;4997472;28;20033;-75
2021/06/10 01:57:53;;;;;;;6.53;5.93;;;;;;;;;;4999975;28;20025;-75
2021/06/10 02:00:19;;;;;;;9.27;7.18;;;;;;;;;;5001201;28;20030;-75
2021/06/10 02:02:44;;;;;;;7.03;6.32;;;;;;;;;;5033172;28;20480;-75
2021/06/10 02:05:10;;;;;;;8.20;7.35;;;;;;;;;;5017545;28;20037;-75
2021/06/10 02:07:37;;;;;;;7.72;7.03;;;;;;;;;;5017184;28;20577;-75
2021/06/10 02:10:04;;;;;;;7.55;6.75;;;;;;;;;;5017588;28;20048;-75
2021/06/10 02:12:29;;;;;;;7.82;7.03;;;;;;;;;;5017136;28;20029;-75
2021/06/10 02:14:55;;;;;;;8.30;7.18;;;;;;;;;;4999729;28;20063;-75
2021/06/10 02:17:20;;;;;;;9.45;7.00;;;;;;;;;;5033246;28;20080;-75
2021/06/10 02:19:46;;;;;;;7.15;6.50;;;;;;;;;;5017654;28;20033;-75
2021/06/10 02:22:12;;;;;;;8.55;6.88;;;;;;;;;;5017401;28;20056;-75
2021/06/10 02:24:39;;;;;;;7.55;6.85;;;;;;;;;;5017531;28;20030;-75
2021/06/10 02:27:05;;;;;;;6.80;6.20;;;;;;;;;;5016739;28;20565;-75
2021/06/10 02:29:31;;;;;;;7.72;7.03;;;;;;;;;;5016936;28;20025;-75
2021/06/10 02:31:56;;;;;;;7.13;6.50;;;;;;;;;;5015926;28;20033;-75
2021/06/10 02:34:22;;;;;;;7.88;7.05;;;;;;;;;;5016575;28;20045;-75
2021/06/10 02:36:47;;;;;;;7.47;6.72;;;;;;;;;;5016569;28;20112;-75
2021/06/10 02:39:14;;;;;;;7.50;6.60;;;;;;;;;;5017017;28;20025;-75
2021/06/10 02:41:42;;;;;;;8.18;7.38;;;;;;;;;;5017055;28;20041;-75
2021/06/10 02:44:08;;;;;;;7.55;6.75;;;;;;;;;;5017040;28;20037;-75
2021/06/10 02:46:33;;;;;;;9.75;6.65;;;;;;;;;;4996002;28;20045;-75
2021/06/10 02:48:59;;;;;;;7.47;6.78;;;;;;;;;;4983758;28;20132;-75
2021/06/10 02:51:28;;;;;;;7.50;6.80;;;;;;;;;;5016631;28;20030;-75
2021/06/10 02:53:54;;;;;;;7.45;6.68;;;;;;;;;;5000408;28;20029;-75
2021/06/10 02:56:19;;;;;;;7.57;6.80;;;;;;;;;;5016408;28;20490;-75
2021/06/10 02:58:45;;;;;;;7.28;6.57;;;;;;;;;;5016380;28;20053;-75
2021/06/10 03:01:10;;;;;;;8.13;7.30;;;;;;;;;;4999486;28;20484;-75
2021/06/10 03:03:36;;;;;;;7.10;6.50;;;;;;;;;;5015930;28;20047;-75
2021/06/10 03:06:02;;;;;;;9.73;7.75;;;;;;;;;;5016228;28;20026;-75
2021/06/10 03:08:27;;;;;;;7.22;6.38;;;;;;;;;;5015888;28;20101;-75
2021/06/10 03:10:53;;;;;;;7.43;6.75;;;;;;;;;;4999726;28;20033;-75
2021/06/10 03:13:19;;;;;;;6.80;6.13;;;;;;;;;;5016152;28;20087;-75
2021/06/10 03:15:44;;;;;;;6.75;6.15;;;;;;;;;;5015092;28;20037;-76
2021/06/10 03:18:10;;;;;;;7.13;6.15;;;;;;;;;;5015851;28;20026;-76
2021/06/10 03:20:36;;;;;;;7.22;6.50;;;;;;;;;;5015681;28;20052;-76
2021/06/10 03:23:01;;;;;;;6.53;5.88;;;;;;;;;;5015980;28;20112;-76
2021/06/10 03:25:27;;;;;;;6.70;6.10;;;;;;;;;;5015935;28;20037;-76
2021/06/10 03:27:52;;;;;;;7.15;6.45;;;;;;;;;;5015225;28;20036;-75
2021/06/10 03:30:18;;;;;;;7.32;6.68;;;;;;;;;;4995104;28;20030;-75
2021/06/10 03:32:43;;;;;;;7.47;6.78;;;;;;;;;;4996491;28;20642;-75
2021/06/10 03:35:09;;;;;;;7.00;6.10;;;;;;;;;;5015553;28;20108;-74
2021/06/10 03:37:35;;;;;;;7.65;6.68;;;;;;;;;;5015864;28;20494;-75
2021/06/10 03:40:00;;;;;;;8.60;6.18;;;;;;;;;;5015498;28;20059;-75
2021/06/10 03:42:26;;;;;;;6.63;6.03;;;;;;;;;;5015509;28;20049;-75
2021/06/10 03:44:52;;;;;;;7.57;6.70;;;;;;;;;;5014752;28;20034;-75
2021/06/10 03:47:17;;;;;;;6.80;6.13;;;;;;;;;;5015809;28;20044;-74
2021/06/10 03:49:43;;;;;;;8.02;6.13;;;;;;;;;;5015654;28;20065;-75
2021/06/10 03:52:08;;;;;;;6.60;6.00;;;;;;;;;;5015301;28;20037;-75
2021/06/10 03:54:34;;;;;;;7.10;6.40;;;;;;;;;;5031606;28;20396;-75
2021/06/10 03:56:59;;;;;;;6.35;5.75;;;;;;;;;;4998571;28;20045;-75
2021/06/10 03:59:25;;;;;;;6.60;6.00;;;;;;;;;;5031396;28;20041;-75
2021/06/10 04:01:50;;;;;;;5.90;5.40;;;;;;;;;;5014931;28;20048;-75
2021/06/10 04:04:17;;;;;;;6.93;6.22;;;;;;;;;;4998736;28;20048;-75
2021/06/10 04:06:43;;;;;;;6.78;6.13;;;;;;;;;;5015334;28;20045;-74
2021/06/10 04:09:09;;;;;;;6.40;5.70;;;;;;;;;;5015598;28;20088;-75
2021/06/10 04:11:35;;;;;;;6.07;5.47;;;;;;;;;;4995617;28;20037;-75
2021/06/10 04:14:00;;;;;;;6.82;5.80;;;;;;;;;;5022968;28;20557;-75
2021/06/10 04:16:26;;;;;;;6.45;5.82;;;;;;;;;;5031048;28;20037;-75
2021/06/10 04:18:52;;;;;;;6.45;5.80;;;;;;;;;;5015090;28;20033;-75
2021/06/10 04:21:17;;;;;;;6.00;5.40;;;;;;;;;;5014546;28;20029;-75
2021/06/10 04:23:43;;;;;;;6.38;5.72;;;;;;;;;;5030852;28;20487;-75
2021/06/10 04:26:08;;;;;;;5.88;5.38;;;;;;;;;;5030964;28;20086;-75
2021/06/10 04:28:34;;;;;;;6.50;5.97;;;;;;;;;;5014290;28;20040;-75
2021/06/10 04:31:00;;;;;;;5.38;4.88;;;;;;;;;;5014719;28;20104;-75
2021/06/10 04:33:26;;;;;;;5.93;4.82;;;;;;;;;;5047394;28;20071;-75
2021/06/10 04:35:52;;;;;;;6.13;5.38;;;;;;;;;;5014625;28;20086;-74
2021/06/10 04:38:17;;;;;;;5.85;5.35;;;;;;;;;;5014642;28;20029;-75
2021/06/10 04:40:43;;;;;;;5.75;5.25;;;;;;;;;;5013989;28;20099;-74
2021/06/10 04:43:08;;;;;;;6.03;4.90;;;;;;;;;;5013971;28;20427;-75
2021/06/10 04:45:34;;;;;;;5.53;5.03;;;;;;;;;;5011445;28;20108;-74
2021/06/10 04:48:00;;;;;;;5.72;5.13;;;;;;;;;;5028511;28;20040;-75
2021/06/10 04:50:26;;;;;;;6.38;5.32;;;;;;;;;;5012714;28;20038;-75
2021/06/10 04:52:52;;;;;;;5.57;4.85;;;;;;;;;;5014698;28;20053;-75
2021/06/10 04:55:18;;;;;;;5.15;4.65;;;;;;;;;;5014113;28;20076;-75
2021/06/10 04:57:43;;;;;;;5.90;5.40;;;;;;;;;;5013290;28;20033;-75
2021/06/10 05:00:09;;;;;;;5.78;4.97;;;;;;;;;;5010798;28;20061;-75
2021/06/10 05:02:37;;;;;;;5.47;4.97;;;;;;;;;;4994193;28;20034;-75
2021/06/10 05:05:05;;;;;;;6.80;6.10;;;;;;;;;;5007176;28;20041;-75
2021/06/10 05:07:30;;;;;;;8.40;7.63;;;;;;;;;;5030663;28;20029;-75
2021/06/10 05:09:55;;;;;;;8.95;8.10;;;;;;;;;;5047489;28;20073;-75
2021/06/10 05:12:21;;;;;;;8.63;7.68;;;;;;;;;;4997538;28;20099;-75
2021/06/10 05:14:46;;;;;;;9.80;8.18;;;;;;;;;;5030325;28;20039;-75
2021/06/10 05:17:12;;;;;;;9.35;8.35;;;;;;;;;;5013478;28;20033;-75
2021/06/10 05:19:38;;;;;;;8.90;7.65;;;;;;;;;;5013855;28;20128;-75
2021/06/10 05:22:03;;;;;;;9.38;8.40;;;;;;;;;;5030230;28;20151;-75
2021/06/10 05:24:29;;;;;;;9.75;8.85;;;;;;;;;;4997732;28;20063;-75
2021/06/10 05:26:55;;;;;;;9.75;7.90;;;;;;;;;;5029855;28;20033;-75
2021/06/10 05:29:21;;;;;;;8.13;7.20;;;;;;;;;;5014440;28;20045;-75
2021/06/10 05:31:46;;;;;;;8.27;7.47;;;;;;;;;;4998589;28;20438;-75
2021/06/10 05:34:12;;;;;;;7.55;6.78;;;;;;;;;;5017728;28;20041;-75
2021/06/10 05:36:38;;;;;;;8.80;7.90;;;;;;;;;;5017930;28;20029;-75
2021/06/10 05:39:03;;;;;;;8.77;8.05;;;;;;;;;;5018303;28;20030;-76
2021/06/10 05:41:29;;;;;;;7.50;6.75;;;;;;;;;;5001101;28;20029;-75
2021/06/10 05:43:54;;;;;;;8.20;7.40;;;;;;;;;;5034336;28;20048;-77
2021/06/10 05:46:20;;;;;;;8.02;7.18;;;;;;;;;;5000739;28;20106;-76
2021/06/10 05:48:46;;;;;;;8.85;7.35;;;;;;;;;;5017809;28;20045;-77
2021/06/10 05:51:13;;;;;;;10.05;8.05;;;;;;;;;;5000489;28;20029;-76
2021/06/10 05:53:38;;;;;;;10.23;7.22;;;;;;;;;;5014694;28;20046;-77
2021/06/10 05:56:04;;;;;;;11.77;6.38;;;;;;;;;;5013334;28;20045;-76
2021/06/10 05:58:30;;;;;;;10.45;7.45;;;;;;;;;;5032839;28;20044;-76
2021/06/10 06:00:55;;;;;;;10.23;7.68;;;;;;;;;;5017190;28;20037;-76
2021/06/10 06:03:21;;;;;;;18.83;8.30;;;;;;;;;;5032715;28;20055;-74
2021/06/10 06:05:47;;;;;;;19.40;9.68;;;;;;;;;;5012115;28;20056;-75
2021/06/10 06:08:14;;;;;;;9.82;7.97;;;;;;;;;;5017096;28;20387;-75
2021/06/10 06:10:39;;;;;;;9.55;8.57;;;;;;;;;;5024211;28;20043;-75
2021/06/10 06:13:07;;;;;;;9.55;8.27;;;;;;;;;;5036742;28;20068;-75
2021/06/10 06:15:33;;;;;;;9.65;8.75;;;;;;;;;;5020676;28;20044;-75
2021/06/10 06:17:58;;;;;;;8.55;7.10;;;;;;;;;;5036150;28;20033;-74
2021/06/10 06:20:24;;;;;;;10.73;7.65;;;;;;;;;;5036435;28;20056;-75
2021/06/10 06:22:50;;;;;;;8.63;7.68;;;;;;;;;;5025157;28;20033;-74
2021/06/10 06:25:16;;;;;;;7.95;7.15;;;;;;;;;;5016806;28;20041;-75
2021/06/10 06:27:41;;;;;;;12.93;9.50;;;;;;;;;;5016794;28;20034;-75
2021/06/10 06:30:08;;;;;;;10.35;7.72;;;;;;;;;;5016946;28;20360;-74
2021/06/10 06:32:35;;;;;;;7.78;6.97;;;;;;;;;;5016262;28;20033;-75
2021/06/10 06:35:01;;;;;;;10.77;7.97;;;;;;;;;;5031231;28;20040;-74
2021/06/10 06:37:26;;;;;;;8.30;7.50;;;;;;;;;;5016466;28;20056;-74
2021/06/10 06:39:52;;;;;;;9.00;7.00;;;;;;;;;;5015975;28;20491;-75
2021/06/10 06:42:17;;;;;;;10.35;6.80;;;;;;;;;;5016122;28;20115;-75
2021/06/10 06:44:43;;;;;;;10.48;8.20;;;;;;;;;;5032402;28;20045;-75
2021/06/10 06:47:09;;;;;;;8.65;7.75;;;;;;;;;;5016467;28;20124;-75
2021/06/10 06:49:35;;;;;;;11.35;7.75;;;;;;;;;;5016624;28;20029;-75
2021/06/10 06:52:00;;;;;;;9.90;8.43;;;;;;;;;;5031935;28;20037;-75
2021/06/10 06:54:25;;;;;;;7.95;7.15;;;;;;;;;;5015186;28;20064;-75
2021/06/10 06:56:51;;;;;;;9.27;7.25;;;;;;;;;;5032331;28;20033;-75
2021/06/10 06:59:16;;;;;;;8.90;7.63;;;;;;;;;;5032421;28;20029;-75
2021/06/10 07:01:42;;;;;;;8.88;6.53;;;;;;;;;;4999760;28;20034;-75
2021/06/10 07:04:07;;;;;;;11.15;8.10;;;;;;;;;;5014316;28;20065;-75
2021/06/10 07:06:33;;;;;;;9.15;7.35;;;;;;;;;;5015761;28;20059;-76
2021/06/10 07:08:58;;;;;;;11.70;7.40;;;;;;;;;;5031963;28;20037;-75
2021/06/10 07:11:24;;;;;;;10.23;7.88;;;;;;;;;;5015717;28;20041;-75
2021/06/10 07:13:49;;;;;;;10.30;8.05;;;;;;;;;;4999360;28;20029;-78
2021/06/10 07:16:15;;;;;;;8.50;6.60;;;;;;;;;;5015580;28;20033;-78
2021/06/10 07:18:40;;;;;;;9.05;6.47;;;;;;;;;;5015750;28;20094;-78
2021/06/10 07:21:06;;;;;;;8.52;7.25;;;;;;;;;;5032342;28;20044;-78
2021/06/10 07:23:31;;;;;;;10.15;8.10;;;;;;;;;;5015306;28;20034;-78
2021/06/10 07:25:56;;;;;;;11.60;8.00;;;;;;;;;;5015666;28;20056;-78
2021/06/10 07:28:22;;;;;;;11.63;7.45;;;;;;;;;;5015585;28;20120;-78
2021/06/10 07:30:48;;;;;;;8.35;6.82;;;;;;;;;;5015094;28;20033;-78
2021/06/10 07:33:14;;;;;;;12.10;6.68;;;;;;;;;;5015372;28;20033;-79
2021/06/10 07:35:39;;;;;;;11.38;7.47;;;;;;;;;;5015630;28;20029;-76
2021/06/10 07:38:05;;;;;;;10.48;6.97;;;;;;;;;;5015276;28;20025;-77
2021/06/10 07:40:30;;;;;;;9.18;6.82;;;;;;;;;;5014919;28;20037;-78
2021/06/10 07:42:57;;;;;;;9.45;7.75;;;;;;;;;;4999397;28;20112;-78
2021/06/10 07:45:24;;;;;;;8.77;5.75;;;;;;;;;;5030991;28;20513;-77
2021/06/10 07:47:49;;;;;;;9.50;6.75;;;;;;;;;;4998674;28;20060;-78
2021/06/10 07:50:15;;;;;;;12.15;7.00;;;;;;;;;;5015912;28;20140;-78
2021/06/10 07:52:40;;;;;;;13.38;7.00;;;;;;;;;;5013270;28;20037;-78
2021/06/10 07:55:06;;;;;;;8.43;6.57;;;;;;;;;;5014504;28;20525;-78
2021/06/10 07:57:32;;;;;;;11.13;6.20;;;;;;;;;;4994776;28;20084;-78
2021/06/10 07:59:57;;;;;;;11.18;6.78;;;;;;;;;;4995385;28;20073;-78
2021/06/10 08:02:25;;;;;;;8.18;5.75;;;;;;;;;;5011763;28;20025;-78
2021/06/10 08:04:51;;;;;;;6.85;5.80;;;;;;;;;;5009340;28;20091;-78
2021/06/10 08:07:16;;;;;;;10.50;6.32;;;;;;;;;;5022226;28;20388;-78
2021/06/10 08:09:42;;;;;;;8.02;6.00;;;;;;;;;;4998654;28;20072;-79
2021/06/10 08:12:08;;;;;;;6.38;4.93;;;;;;;;;;5014493;28;20087;-78
2021/06/10 08:14:33;;;;;;;8.30;6.25;;;;;;;;;;5014874;28;20037;-78
2021/06/10 08:16:59;;;;;;;7.88;5.43;;;;;;;;;;5014827;28;20029;-78
2021/06/10 08:19:24;;;;;;;8.43;5.38;;;;;;;;;;5015460;28;20045;-78
2021/06/10 08:21:50;;;;;;;6.88;5.00;;;;;;;;;;5014652;28;20033;-79
2021/06/10 08:24:15;;;;;;;9.80;6.07;;;;;;;;;;5014885;28;20033;-79
2021/06/10 08:26:43;;;;;;;7.40;5.05;;;;;;;;;;5014301;28;20048;-78
2021/06/10 08:29:09;;;;;;;5.72;5.13;;;;;;;;;;5013191;28;20071;-79
2021/06/10 08:31:34;;;;;;;8.90;5.03;;;;;;;;;;5030233;28;20030;-78
2021/06/10 08:34:00;;;;;;;7.85;4.50;;;;;;;;;;4998281;28;20080;-79
2021/06/10 08:36:25;;;;;;;5.03;4.53;;;;;;;;;;4998387;28;20048;-79
2021/06/10 08:38:51;;;;;;;5.47;3.63;;;;;;;;;;5031631;28;20087;-79
2021/06/10 08:41:17;;;;;;;5.68;4.10;;;;;;;;;;5014785;28;20056;-79
2021/06/10 08:43:42;;;;;;;5.53;3.50;;;;;;;;;;5031092;28;20029;-79
2021/06/10 08:46:11;;;;;;;6.82;3.28;;;;;;;;;;5030481;28;20033;-79
2021/06/10 08:48:42;;;;;;;6.68;3.97;;;;;;;;;;5031052;28;20030;-79
2021/06/10 08:51:08;;;;;;;6.07;3.13;;;;;;;;;;4983120;28;20434;-78
2021/06/10 08:53:34;;;;;;;6.03;3.50;;;;;;;;;;4997739;28;20033;-78
2021/06/10 08:55:59;;;;;;;7.30;3.17;;;;;;;;;;4997803;28;20034;-79
2021/06/10 08:58:26;;;;;;;4.50;2.53;;;;;;;;;;5014564;28;20068;-79
2021/06/10 09:00:53;;;;;;;5.05;2.10;;;;;;;;;;5013899;28;20042;-79
2021/06/10 09:03:22;;;;;;;5.47;2.60;;;;;;;;;;4981094;28;20037;-78
2021/06/10 09:06:16;;;;;;;5.00;3.03;;;;;;;;;;5002161;28;20034;-78
2021/06/10 09:08:43;;;;;;;4.75;2.80;;;;;;;;;;5027644;28;20034;-76
2021/06/10 09:11:19;;;;;;;7.32;3.28;;;;;;;;;;4997680;28;20511;-77
2021/06/10 09:13:47;;;;;;;5.05;3.10;;;;;;;;;;5029401;28;20025;-75
2021/06/10 09:16:36;;;;;;;4.38;3.60;;;;;;;;;;5029885;28;20064;-76
2021/06/10 09:19:11;;;;;;;8.02;3.47;;;;;;;;;;5022375;28;20116;-75
2021/06/10 09:21:41;;;;;;;5.82;2.85;;;;;;;;;;5030434;28;20059;-76
2021/06/10 09:24:29;;;;;;;5.55;2.67;;;;;;;;;;5030341;28;20503;-76
2021/06/10 09:27:08;;;;;;;5.88;2.95;;;;;;;;;;5030009;28;20033;-76
2021/06/10 09:29:42;;;;;;;3.38;2.33;;;;;;;;;;5030556;28;20026;-76
2021/06/10 09:32:14;;;;;;;4.13;2.42;;;;;;;;;;5013495;28;20065;-75
2021/06/10 09:34:51;;;;;;;4.53;2.38;;;;;;;;;;5018847;28;20056;-76
2021/06/10 09:37:44;;;;;;;8.13;1.90;;;;;;;;;;5015673;28;20030;-77
2021/06/10 09:40:13;;;;;;;;;;;;;;;;;;5023775;28;20098;-76
2021/06/10 09:42:40;;;;;;;3.42;1.67;;;;;;;;;;5014016;28;20282;-76
2021/06/10 09:45:11;;;;;;;3.35;2.08;;;;;;;;;;5013227;28;20079;-75
2021/06/10 09:47:45;;;;;;;4.75;2.03;;;;;;;;;;5030529;28;20037;-76
2021/06/10 09:50:27;;;;;;;3.67;1.80;;;;;;;;;;5014241;28;20105;-76
2021/06/10 09:52:57;;;;;;;3.60;2.13;;;;;;;;;;5031077;28;20095;-76
2021/06/10 09:55:26;;;;;;;5.28;2.53;;;;;;;;;;5013589;28;20068;-76
2021/06/10 09:57:52;;;;;;;4.25;2.45;;;;;;;;;;5031371;28;20040;-76
2021/06/10 10:00:24;;;;;;;4.53;2.20;;;;;;;;;;5013833;28;20060;-75
2021/06/10 10:02:50;;;;;;;4.88;2.97;;;;;;;;;;5012596;28;20021;-75
2021/06/10 10:05:15;;;;;;;5.65;1.95;;;;;;;;;;5033151;28;20076;-76
2021/06/10 10:07:41;;;;;;;8.35;2.55;;;;;;;;;;5030195;28;20064;-76
2021/06/10 10:10:07;;;;;;;13.32;2.83;;;;;;;;;;5029867;28;20399;-76
2021/06/10 10:12:33;;;;;;;6.47;1.95;;;;;;;;;;5013766;28;20034;-76
2021/06/10 10:14:59;;;;;;;4.03;1.83;;;;;;;;;;5012521;28;20525;-76
2021/06/10 10:17:28;;;;;;;2.72;1.70;;;;;;;;;;5012868;28;20121;-77
2021/06/10 10:19:55;;;;;;;6.65;1.83;;;;;;;;;;5000784;28;20104;-76
2021/06/10 10:22:20;;;;;;;4.60;1.75;;;;;;;;;;5000677;28;20041;-76
2021/06/10 10:24:46;;;;;;;4.15;1.80;;;;;;;;;;5000711;28;20026;-76
2021/06/10 10:27:15;;;;;;;6.45;2.17;;;;;;;;;;5000560;28;20159;-77
2021/06/10 10:29:43;;;;;;;5.35;2.03;;;;;;;;;;5001269;28;20052;-76
2021/06/10 10:32:09;;;;;;;5.05;2.33;;;;;;;;;;5015738;28;20037;-77
2021/06/10 10:34:35;;;;;;;4.40;1.80;;;;;;;;;;5000274;28;20025;-76
2021/06/10 10:37:39;;;;;;;4.53;2.00;;;;;;;;;;4997673;28;20483;-76
2021/06/10 10:40:05;;;;;;;4.15;1.52;;;;;;;;;;4976449;28;20511;-77
2021/06/10 10:42:33;;;;;;;4.82;2.58;;;;;;;;;;4976395;28;20551;-77
2021/06/10 10:45:12;;;;;;;4.95;2.38;;;;;;;;;;4987073;28;20104;-76
2021/06/10 10:47:45;;;;;;;42.78;5.60;;;;;;;;;;5031105;28;20108;-76
2021/06/10 10:50:17;;;;;;;4.70;2.22;;;;;;;;;;5033011;28;20080;-76
2021/06/10 10:52:56;;;;;;;3.95;1.95;;;;;;;;;;4997083;28;20410;-76
2021/06/10 10:55:28;;;;;;;7.97;2.85;;;;;;;;;;5006446;28;20033;-76
2021/06/10 10:58:07;;;;;;;13.52;3.08;;;;;;;;;;5017317;28;20038;-76
2021/06/10 11:00:53;;;;;;;5.97;2.20;;;;;;;;;;5015833;28;20066;-77
2021/06/10 11:03:30;;;;;;;7.53;2.45;;;;;;;;;;5016176;28;20045;-77
2021/06/10 11:05:57;;;;;;;4.10;2.20;;;;;;;;;;5020285;28;20098;-77
2021/06/10 11:08:24;;;;;;;4.65;2.00;;;;;;;;;;5019634;28;20090;-77
2021/06/10 11:10:54;;;;;;;5.10;1.83;;;;;;;;;;5020660;28;20029;-77
2021/06/10 11:13:29;;;;;;;3.33;1.70;;;;;;;;;;5048471;28;20440;-77
2021/06/10 11:16:04;;;;;;;5.50;1.85;;;;;;;;;;5028883;28;20052;-77
2021/06/10 11:18:50;;;;;;;2.85;1.85;;;;;;;;;;4992750;28;20507;-77
2021/06/10 11:21:41;;;;;;;2.67;1.50;;;;;;;;;;4998982;28;20037;-77
2021/06/10 11:24:17;;;;;;;4.45;2.10;;;;;;;;;;5033878;28;20049;-78
2021/06/10 11:27:00;;;;;;;3.53;2.20;;;;;;;;;;5015959;28;20030;-77
2021/06/10 11:29:27;;;;;;;3.28;1.70;;;;;;;;;;5014932;28;20044;-78
2021/06/10 11:32:19;;;;;;;2.08;1.70;;;;;;;;;;5031861;28;20108;-78
2021/06/10 11:34:49;;;;;;;2.85;1.80;;;;;;;;;;5032006;28;20129;-78
2021/06/10 11:37:18;;;;;;;3.85;1.85;;;;;;;;;;5015892;28;20033;-77
2021/06/10 11:39:44;;;;;;;5.80;1.80;;;;;;;;;;5032017;28;20045;-78
2021/06/10 11:42:10;;;;;;;4.63;2.03;;;;;;;;;;5012070;28;20113;-77
2021/06/10 11:44:46;;;;;;;4.25;2.20;;;;;;;;;;5011142;28;20033;-78
2021/06/10 11:47:25;;;;;;;5.45;2.35;;;;;;;;;;5032240;28;20033;-77
2021/06/10 11:49:51;;;;;;;3.83;1.83;;;;;;;;;;4996109;28;20033;-77
2021/06/10 11:52:16;;;;;;;3.88;1.80;;;;;;;;;;4996009;28;20500;-77
2021/06/10 11:55:09;;;;;;;3.85;2.15;;;;;;;;;;4995743;28;20107;-78
2021/06/10 11:57:34;;;;;;;;;;;;;;;;;;4996123;28;20041;-78
2021/06/10 12:00:08;;;;;;;3.00;1.95;;;;;;;;;;5020575;28;19905;-77
2021/06/10 12:02:34;;;;;;;4.90;2.17;;;;;;;;;;5030434;28;20099;-77
2021/06/10 12:05:11;;;;;;;2.25;1.75;;;;;;;;;;5012619;28;20037;-77
2021/06/10 12:07:37;;;;;;;2.58;2.15;;;;;;;;;;5046943;28;20491;-77
2021/06/10 12:10:09;;;;;;;3.40;2.10;;;;;;;;;;5015125;28;20051;-77
2021/06/10 12:12:41;;;;;;;3.85;2.17;;;;;;;;;;5015246;28;20472;-77
2021/06/10 12:15:28;;;;;;;4.15;2.00;;;;;;;;;;5015271;28;20061;-77
2021/06/10 12:18:03;;;;;;;3.08;2.03;;;;;;;;;;5015402;28;20033;-77
2021/06/10 12:20:34;;;;;;;2.78;1.85;;;;;;;;;;5031918;28;20037;-77
2021/06/10 12:23:01;;;;;;;3.45;2.03;;;;;;;;;;5007208;28;20033;-77
2021/06/10 12:25:28;;;;;;;3.10;1.70;;;;;;;;;;5014582;28;20033;-77
2021/06/10 12:27:54;;;;;;;3.72;2.05;;;;;;;;;;4981589;28;20420;-78
2021/06/10 12:30:35;;;;;;;4.55;2.03;;;;;;;;;;5013832;28;20025;-78
2021/06/10 12:33:17;;;;;;;3.63;1.80;;;;;;;;;;5032644;28;20096;-78
2021/06/10 12:35:43;;;;;;;;;;;;;;;;;;5031061;28;20033;-78
2021/06/10 12:38:09;;;;;;;3.20;1.70;;;;;;;;;;5030877;28;20405;-78
2021/06/10 12:40:45;;;;;;;4.57;1.90;;;;;;;;;;4997943;28;20065;-78
2021/06/10 12:43:19;;;;;;;3.85;1.75;;;;;;;;;;5014839;28;20040;-78
2021/06/10 12:45:44;;;;;;;3.50;2.00;;;;;;;;;;5015459;28;20492;-78
2021/06/10 12:48:40;;;;;;;5.45;2.38;;;;;;;;;;5014331;28;20025;-78
2021/06/10 12:51:19;;;;;;;2.55;2.03;;;;;;;;;;5022561;28;20125;-78
2021/06/10 12:53:55;;;;;;;3.30;2.13;;;;;;;;;;5030400;28;20033;-78
2021/06/10 12:56:51;;;;;;;3.28;2.00;;;;;;;;;;4993548;28;20476;-78
2021/06/10 12:59:37;;;;;;;5.68;2.65;;;;;;;;;;5013602;28;20053;-78
2021/06/10 13:02:10;;;;;;;4.57;2.53;;;;;;;;;;5030767;28;20044;-78
2021/06/10 13:04:49;;;;;;;3.03;2.10;;;;;;;;;;5028978;28;20045;-78
2021/06/10 13:07:33;;;;;;;3.80;2.03;;;;;;;;;;5015108;28;20048;-78
2021/06/10 13:10:02;;;;;;;4.45;2.05;;;;;;;;;;5029459;28;20079;-78
2021/06/10 13:12:29;;;;;;;3.38;1.58;;;;;;;;;;5030745;28;20040;-78
2021/06/10 13:15:37;;;;;;;3.53;1.70;;;;;;;;;;5030259;28;20498;-78
2021/06/10 13:18:13;;;;;;;3.40;2.20;;;;;;;;;;4989327;28;20447;-78
2021/06/10 13:20:47;;;;;;;3.72;1.63;;;;;;;;;;5025566;28;20091;-78
2021/06/10 13:23:17;;;;;;;5.30;1.80;;;;;;;;;;5030594;28;20041;-78
2021/06/10 13:25:43;;;;;;;3.45;2.08;;;;;;;;;;5029691;28;20040;-78
2021/06/10 13:28:17;;;;;;;4.65;2.13;;;;;;;;;;5013351;28;20040;-78
2021/06/10 13:30:43;;;;;;;4.43;1.85;;;;;;;;;;5001458;28;20049;-78
2021/06/10 13:33:09;;;;;;;4.93;2.35;;;;;;;;;;5013389;28;20491;-78
2021/06/10 13:35:42;;;;;;;2.95;1.85;;;;;;;;;;5014083;28;20029;-78
2021/06/10 13:38:10;;;;;;;5.35;2.10;;;;;;;;;;5015096;28;20040;-78
2021/06/10 13:40:37;;;;;;;3.88;1.63;;;;;;;;;;4995033;28;20129;-78
2021/06/10 13:43:03;;;;;;;3.63;1.60;;;;;;;;;;5029598;28;20495;-78
2021/06/10 13:45:30;;;;;;;3.03;1.45;;;;;;;;;;5013406;28;20030;-78
2021/06/10 13:47:57;;;;;;;3.08;1.33;;;;;;;;;;5014652;28;20056;-78
2021/06/10 13:50:23;;;;;;;5.35;1.45;;;;;;;;;;4997415;28;20101;-78
2021/06/10 13:52:48;;;;;;;7.63;1.80;;;;;;;;;;4999165;28;20030;-77
2021/06/10 13:55:14;;;;;;;4.35;1.55;;;;;;;;;;5017446;28;20017;-78
2021/06/10 13:57:39;;;;;;;2.47;1.40;;;;;;;;;;5008115;28;20033;-77
2021/06/10 14:00:06;;;;;;;3.35;1.48;;;;;;;;;;5017391;28;20026;-77
2021/06/10 14:02:31;;;;;;;5.40;2.00;;;;;;;;;;5017409;28;20076;-77
2021/06/10 14:04:56;;;;;;;8.80;2.63;;;;;;;;;;5013216;28;20108;-78
2021/06/10 14:07:22;;;;;;;12.40;2.53;;;;;;;;;;5013499;28;20495;-78
2021/06/10 14:09:47;;;;;;;4.60;2.25;;;;;;;;;;4999062;28;20041;-78
2021/06/10 14:12:13;;;;;;;4.43;2.08;;;;;;;;;;5016857;28;20029;-78
2021/06/10 14:14:39;;;;;;;3.45;2.55;;;;;;;;;;5016381;28;20029;-78
2021/06/10 14:17:05;;;;;;;3.53;2.30;;;;;;;;;;5017267;28;20039;-78
2021/06/10 14:19:30;;;;;;;5.28;2.25;;;;;;;;;;5017044;28;20413;-78
2021/06/10 14:21:56;;;;;;;2.85;2.10;;;;;;;;;;5000910;28;20117;-78
2021/06/10 14:24:21;;;;;;;6.47;2.95;;;;;;;;;;5015436;28;20026;-78
2021/06/10 14:26:47;;;;;;;6.95;2.20;;;;;;;;;;5012765;28;20091;-78
2021/06/10 14:29:42;;;;;;;5.65;2.70;;;;;;;;;;5013507;28;20030;-77
2021/06/10 14:32:23;;;;;;;3.03;1.98;;;;;;;;;;5044155;28;20042;-77
2021/06/10 14:34:50;;;;;;;3.75;1.65;;;;;;;;;;5004523;28;20038;-77
2021/06/10 14:37:16;;;;;;;4.30;1.75;;;;;;;;;;4999523;28;20441;-77
2021/06/10 14:39:42;;;;;;;2.20;1.35;;;;;;;;;;5000619;28;20037;-78
2021/06/10 14:42:07;;;;;;;2.15;1.50;;;;;;;;;;5016318;28;20048;-77
2021/06/10 14:44:33;;;;;;;2.88;1.75;;;;;;;;;;5016543;28;20514;-77
2021/06/10 14:46:58;;;;;;;3.50;1.42;;;;;;;;;;5016970;28;20033;-77
2021/06/10 14:49:24;;;;;;;4.85;1.45;;;;;;;;;;5016181;28;20036;-77
2021/06/10 14:51:50;;;;;;;4.35;1.70;;;;;;;;;;5013080;28;20026;-78